Pooler, GA (31322)

6:06 PM EST on February 09, 2016 (GMT -0500)
Sangrena-Pooler | | Change Station
CLOSE
Current Station
Personal Weather Station
Location: Pooler, GA
Elevation: 26 ft
Nearby Weather Stations
Active Advisory: Flood Warning

Elev 26 ft 32.13 °N, 81.27 °W | Updated 2 seconds ago

Mostly Cloudy
Mostly Cloudy
44.2 °F
Feels Like 44 °F
N
0.0
Wind Variable Wind from North
Gusts 0.0 mph

Today
High -- | Low -- °F
--% Chance of Precip.
Yesterday
High -- | Low -- °F
Precip. -- in
Pressure 29.89 in
Visibility 10.0 miles
Clouds Mostly Cloudy 7000 ft
Windchill 44 °F
Dew Point 26 °F
Humidity 48%
Rainfall 0.00 in
Snow Depth Not available.
7:13 AM 6:05 PM
New Moon, 2% visible
METAR KSAV 092253Z 31010KT 10SM BKN070 07/M05 A2989 RMK AO2 SLP122 T00671050 $
Pressure 29.89 in
Visibility 10.0 miles
Clouds Mostly Cloudy 7000 ft
Windchill 44 °F
Dew Point 26 °F
Humidity 48%
Rainfall 0.00 in
Snow Depth Not available.
7:13 AM 6:05 PM
New Moon, 2% visible
METAR KSAV 092253Z 31010KT 10SM BKN070 07/M05 A2989 RMK AO2 SLP122 T00671050 $

10-Day Weather Forecast

Almanac

Astronomy

Feb. 09, 2016 Rise Set
Actual Time
Civil Twilight
Nautical Twilight
Astronomical Twilight
Moon
Length of Visible Light
Length of Day
Tomorrow will be .
, % of the Moon is Illuminated

Today's Extremes

State Highs State Lows

Community

WunderPhotos

Upload Photos

1,891,728 photos uploaded!

WunderBlog® & News

Nearby

Air Quality

  Air Quality AQ Index Pollutant
Not available.

Snow Depth

Station Depth Elevation

Earthquake Activity

City Distance Mag. Time & Date
Minimum magnitude displayed is 2.5.

Coastal Water Temperatures

Place Temperature

Stations

Nearby Weather Stations

Station Location Temp. Windchill Dew Point Humidity Wind Precip. Elev Updated Type
                   

Watches & Warnings

Flood Warning
Issued: 10:25 AM EST Feb. 9, 2016 – National Weather Service

The Flood Warning continues for
the Ogeechee river near Eden.
* At 9 am Tuesday the stage was 13.0 feet.
* Flood stage is 11.0 feet.
* Minor flooding is occurring.
* Forecast, the river will rise to near 13.3 feet by Thursday morning
then begin a slow fall.
* At 14.0 feet, several homes and camps near the river are surrounded
by water.


Lat... Lon 3246 8160 3252 8152 3227 8140 3208 8133
          3206 8143 3223 8150